sensor_id;sensor_type;location;lat;lon;timestamp;P1;durP1;ratioP1;P2;durP2;ratioP2
43835;SDS011;39345;43.964;25.340;2022-10-22T00:02:08;22.38;;;10.57;;
43835;SDS011;39345;43.964;25.340;2022-10-22T00:04:35;21.10;;;10.88;;
43835;SDS011;39345;43.964;25.340;2022-10-22T00:07:03;21.45;;;10.73;;
43835;SDS011;39345;43.964;25.340;2022-10-22T00:09:30;25.08;;;11.95;;
43835;SDS011;39345;43.964;25.340;2022-10-22T00:11:58;23.45;;;11.68;;
43835;SDS011;39345;43.964;25.340;2022-10-22T00:14:25;20.58;;;12.32;;
43835;SDS011;39345;43.964;25.340;2022-10-22T00:16:53;19.75;;;11.70;;
43835;SDS011;39345;43.964;25.340;2022-10-22T00:19:21;26.55;;;12.40;;
43835;SDS011;39345;43.964;25.340;2022-10-22T00:21:49;21.35;;;12.05;;
43835;SDS011;39345;43.964;25.340;2022-10-22T00:24:16;19.83;;;11.77;;
43835;SDS011;39345;43.964;25.340;2022-10-22T00:26:44;18.98;;;11.02;;
43835;SDS011;39345;43.964;25.340;2022-10-22T00:29:11;18.73;;;11.38;;
43835;SDS011;39345;43.964;25.340;2022-10-22T00:31:39;21.95;;;11.85;;
43835;SDS011;39345;43.964;25.340;2022-10-22T00:34:06;22.38;;;12.18;;
43835;SDS011;39345;43.964;25.340;2022-10-22T00:36:33;24.38;;;12.93;;
43835;SDS011;39345;43.964;25.340;2022-10-22T00:39:01;23.33;;;12.77;;
43835;SDS011;39345;43.964;25.340;2022-10-22T00:41:28;22.30;;;12.98;;
43835;SDS011;39345;43.964;25.340;2022-10-22T00:44:00;21.05;;;12.38;;
43835;SDS011;39345;43.964;25.340;2022-10-22T00:46:28;26.27;;;14.23;;
43835;SDS011;39345;43.964;25.340;2022-10-22T00:48:58;23.60;;;12.82;;
43835;SDS011;39345;43.964;25.340;2022-10-22T00:51:31;22.92;;;12.50;;
43835;SDS011;39345;43.964;25.340;2022-10-22T00:54:03;24.38;;;12.50;;
43835;SDS011;39345;43.964;25.340;2022-10-22T00:56:32;24.60;;;12.95;;
43835;SDS011;39345;43.964;25.340;2022-10-22T00:58:59;22.85;;;12.82;;
43835;SDS011;39345;43.964;25.340;2022-10-22T01:01:29;24.23;;;13.82;;
43835;SDS011;39345;43.964;25.340;2022-10-22T01:03:57;22.10;;;13.20;;
43835;SDS011;39345;43.964;25.340;2022-10-22T01:19:17;28.10;;;14.80;;
43835;SDS011;39345;43.964;25.340;2022-10-22T01:29:39;29.00;;;14.30;;
43835;SDS011;39345;43.964;25.340;2022-10-22T01:32:10;22.17;;;13.55;;
43835;SDS011;39345;43.964;25.340;2022-10-22T01:34:39;23.30;;;13.93;;
43835;SDS011;39345;43.964;25.340;2022-10-22T01:37:08;27.17;;;13.77;;
43835;SDS011;39345;43.964;25.340;2022-10-22T01:39:36;23.15;;;13.45;;
43835;SDS011;39345;43.964;25.340;2022-10-22T01:42:05;27.30;;;13.75;;
43835;SDS011;39345;43.964;25.340;2022-10-22T01:44:33;25.73;;;13.77;;
43835;SDS011;39345;43.964;25.340;2022-10-22T01:57:43;21.60;;;13.10;;
43835;SDS011;39345;43.964;25.340;2022-10-22T02:00:13;23.92;;;13.43;;
43835;SDS011;39345;43.964;25.340;2022-10-22T02:05:22;21.88;;;13.15;;
43835;SDS011;39345;43.964;25.340;2022-10-22T02:07:51;25.08;;;14.23;;
43835;SDS011;39345;43.964;25.340;2022-10-22T02:10:20;25.80;;;13.27;;
43835;SDS011;39345;43.964;25.340;2022-10-22T02:12:49;22.70;;;12.95;;
43835;SDS011;39345;43.964;25.340;2022-10-22T02:15:18;24.70;;;13.45;;
43835;SDS011;39345;43.964;25.340;2022-10-22T02:17:46;27.70;;;14.30;;
43835;SDS011;39345;43.964;25.340;2022-10-22T02:20:16;26.33;;;13.35;;
43835;SDS011;39345;43.964;25.340;2022-10-22T02:22:44;24.85;;;13.88;;
43835;SDS011;39345;43.964;25.340;2022-10-22T02:25:13;26.60;;;14.70;;
43835;SDS011;39345;43.964;25.340;2022-10-22T02:30:11;22.98;;;13.25;;
43835;SDS011;39345;43.964;25.340;2022-10-22T02:35:22;27.40;;;13.82;;
43835;SDS011;39345;43.964;25.340;2022-10-22T02:37:51;26.13;;;12.95;;
43835;SDS011;39345;43.964;25.340;2022-10-22T02:40:19;29.20;;;13.55;;
43835;SDS011;39345;43.964;25.340;2022-10-22T02:42:47;25.92;;;13.40;;
43835;SDS011;39345;43.964;25.340;2022-10-22T02:45:16;25.45;;;13.73;;
43835;SDS011;39345;43.964;25.340;2022-10-22T02:47:44;41.60;;;22.10;;
43835;SDS011;39345;43.964;25.340;2022-10-22T02:50:12;46.95;;;23.85;;
43835;SDS011;39345;43.964;25.340;2022-10-22T02:52:40;69.57;;;33.60;;
43835;SDS011;39345;43.964;25.340;2022-10-22T02:55:08;97.28;;;46.40;;
43835;SDS011;39345;43.964;25.340;2022-10-22T02:57:35;40.20;;;24.15;;
43835;SDS011;39345;43.964;25.340;2022-10-22T03:00:04;35.35;;;16.48;;
43835;SDS011;39345;43.964;25.340;2022-10-22T03:02:32;44.38;;;20.65;;
43835;SDS011;39345;43.964;25.340;2022-10-22T03:04:59;79.85;;;40.50;;
43835;SDS011;39345;43.964;25.340;2022-10-22T03:07:27;70.13;;;37.00;;
43835;SDS011;39345;43.964;25.340;2022-10-22T03:09:54;48.17;;;25.38;;
43835;SDS011;39345;43.964;25.340;2022-10-22T03:12:22;28.48;;;14.07;;
43835;SDS011;39345;43.964;25.340;2022-10-22T03:14:49;23.58;;;14.63;;
43835;SDS011;39345;43.964;25.340;2022-10-22T03:17:17;29.33;;;13.90;;
43835;SDS011;39345;43.964;25.340;2022-10-22T03:19:44;31.60;;;14.23;;
43835;SDS011;39345;43.964;25.340;2022-10-22T03:22:13;27.30;;;13.80;;
43835;SDS011;39345;43.964;25.340;2022-10-22T03:24:43;27.30;;;13.82;;
43835;SDS011;39345;43.964;25.340;2022-10-22T03:27:11;28.63;;;14.50;;
43835;SDS011;39345;43.964;25.340;2022-10-22T03:29:39;27.27;;;14.18;;
43835;SDS011;39345;43.964;25.340;2022-10-22T03:32:07;26.25;;;14.23;;
43835;SDS011;39345;43.964;25.340;2022-10-22T03:34:35;24.42;;;14.82;;
43835;SDS011;39345;43.964;25.340;2022-10-22T03:37:02;26.48;;;14.32;;
43835;SDS011;39345;43.964;25.340;2022-10-22T03:39:30;27.67;;;14.35;;
43835;SDS011;39345;43.964;25.340;2022-10-22T03:41:59;30.98;;;14.10;;
43835;SDS011;39345;43.964;25.340;2022-10-22T03:44:27;26.48;;;14.40;;
43835;SDS011;39345;43.964;25.340;2022-10-22T03:46:54;26.70;;;14.50;;
43835;SDS011;39345;43.964;25.340;2022-10-22T03:49:27;33.05;;;15.45;;
43835;SDS011;39345;43.964;25.340;2022-10-22T03:51:55;28.73;;;14.57;;
43835;SDS011;39345;43.964;25.340;2022-10-22T03:54:22;24.80;;;14.77;;
43835;SDS011;39345;43.964;25.340;2022-10-22T03:56:50;27.00;;;14.43;;
43835;SDS011;39345;43.964;25.340;2022-10-22T03:59:17;27.83;;;14.10;;
43835;SDS011;39345;43.964;25.340;2022-10-22T04:01:45;28.45;;;15.52;;
43835;SDS011;39345;43.964;25.340;2022-10-22T04:04:12;26.27;;;14.15;;
43835;SDS011;39345;43.964;25.340;2022-10-22T04:06:40;28.40;;;14.45;;
43835;SDS011;39345;43.964;25.340;2022-10-22T04:09:07;30.27;;;14.20;;
43835;SDS011;39345;43.964;25.340;2022-10-22T04:11:35;26.73;;;14.23;;
43835;SDS011;39345;43.964;25.340;2022-10-22T04:14:02;27.27;;;13.43;;
43835;SDS011;39345;43.964;25.340;2022-10-22T04:16:29;24.70;;;14.40;;
43835;SDS011;39345;43.964;25.340;2022-10-22T04:18:58;24.42;;;14.55;;
43835;SDS011;39345;43.964;25.340;2022-10-22T04:21:25;23.90;;;13.88;;
43835;SDS011;39345;43.964;25.340;2022-10-22T04:23:53;25.83;;;14.73;;
43835;SDS011;39345;43.964;25.340;2022-10-22T04:26:20;25.83;;;14.95;;
43835;SDS011;39345;43.964;25.340;2022-10-22T04:28:48;28.77;;;15.20;;
43835;SDS011;39345;43.964;25.340;2022-10-22T04:31:17;30.98;;;15.77;;
43835;SDS011;39345;43.964;25.340;2022-10-22T04:33:45;27.23;;;15.85;;
43835;SDS011;39345;43.964;25.340;2022-10-22T04:36:14;25.17;;;15.07;;
43835;SDS011;39345;43.964;25.340;2022-10-22T04:38:43;38.70;;;17.25;;
43835;SDS011;39345;43.964;25.340;2022-10-22T04:41:11;28.80;;;16.05;;
43835;SDS011;39345;43.964;25.340;2022-10-22T04:43:40;26.77;;;15.38;;
43835;SDS011;39345;43.964;25.340;2022-10-22T04:46:07;27.05;;;15.57;;
43835;SDS011;39345;43.964;25.340;2022-10-22T04:48:36;30.48;;;16.42;;
43835;SDS011;39345;43.964;25.340;2022-10-22T04:51:05;28.42;;;16.30;;
43835;SDS011;39345;43.964;25.340;2022-10-22T04:53:33;27.45;;;15.63;;
43835;SDS011;39345;43.964;25.340;2022-10-22T04:56:20;30.67;;;16.15;;
43835;SDS011;39345;43.964;25.340;2022-10-22T04:58:48;30.08;;;17.10;;
43835;SDS011;39345;43.964;25.340;2022-10-22T05:03:43;30.00;;;16.23;;
43835;SDS011;39345;43.964;25.340;2022-10-22T05:06:12;31.90;;;17.73;;
43835;SDS011;39345;43.964;25.340;2022-10-22T05:08:40;34.53;;;17.13;;
43835;SDS011;39345;43.964;25.340;2022-10-22T05:11:19;31.88;;;17.48;;
43835;SDS011;39345;43.964;25.340;2022-10-22T05:13:46;32.17;;;17.67;;
43835;SDS011;39345;43.964;25.340;2022-10-22T05:16:14;32.33;;;17.30;;
43835;SDS011;39345;43.964;25.340;2022-10-22T05:18:42;36.08;;;16.45;;
43835;SDS011;39345;43.964;25.340;2022-10-22T05:21:11;26.23;;;15.35;;
43835;SDS011;39345;43.964;25.340;2022-10-22T05:23:39;28.95;;;15.30;;
43835;SDS011;39345;43.964;25.340;2022-10-22T05:26:07;36.75;;;16.00;;
43835;SDS011;39345;43.964;25.340;2022-10-22T05:28:35;31.13;;;17.42;;
43835;SDS011;39345;43.964;25.340;2022-10-22T05:31:03;28.90;;;15.43;;
43835;SDS011;39345;43.964;25.340;2022-10-22T05:33:31;32.92;;;15.93;;
43835;SDS011;39345;43.964;25.340;2022-10-22T05:35:59;30.38;;;15.75;;
43835;SDS011;39345;43.964;25.340;2022-10-22T05:38:27;27.80;;;15.25;;
43835;SDS011;39345;43.964;25.340;2022-10-22T05:41:02;27.20;;;16.42;;
43835;SDS011;39345;43.964;25.340;2022-10-22T05:46:05;31.50;;;16.90;;
43835;SDS011;39345;43.964;25.340;2022-10-22T05:51:01;30.75;;;16.58;;
43835;SDS011;39345;43.964;25.340;2022-10-22T05:53:31;27.67;;;15.30;;
43835;SDS011;39345;43.964;25.340;2022-10-22T05:56:02;27.75;;;16.13;;
43835;SDS011;39345;43.964;25.340;2022-10-22T05:58:30;29.58;;;15.68;;
43835;SDS011;39345;43.964;25.340;2022-10-22T06:01:02;29.00;;;16.02;;
43835;SDS011;39345;43.964;25.340;2022-10-22T06:03:30;31.30;;;16.23;;
43835;SDS011;39345;43.964;25.340;2022-10-22T06:06:02;28.80;;;16.40;;
43835;SDS011;39345;43.964;25.340;2022-10-22T06:08:30;29.50;;;16.25;;
43835;SDS011;39345;43.964;25.340;2022-10-22T06:10:59;30.67;;;15.68;;
43835;SDS011;39345;43.964;25.340;2022-10-22T06:13:26;27.42;;;15.48;;
43835;SDS011;39345;43.964;25.340;2022-10-22T06:15:54;34.03;;;16.48;;
43835;SDS011;39345;43.964;25.340;2022-10-22T06:18:21;38.85;;;18.17;;
43835;SDS011;39345;43.964;25.340;2022-10-22T06:20:48;35.88;;;18.55;;
43835;SDS011;39345;43.964;25.340;2022-10-22T06:23:16;41.88;;;21.38;;
43835;SDS011;39345;43.964;25.340;2022-10-22T06:25:43;80.18;;;31.10;;
43835;SDS011;39345;43.964;25.340;2022-10-22T06:28:11;62.45;;;27.92;;
43835;SDS011;39345;43.964;25.340;2022-10-22T06:30:38;49.80;;;25.20;;
43835;SDS011;39345;43.964;25.340;2022-10-22T06:33:11;50.70;;;24.90;;
43835;SDS011;39345;43.964;25.340;2022-10-22T06:35:38;53.15;;;25.00;;
43835;SDS011;39345;43.964;25.340;2022-10-22T06:38:06;63.53;;;29.52;;
43835;SDS011;39345;43.964;25.340;2022-10-22T06:40:33;47.45;;;26.50;;
43835;SDS011;39345;43.964;25.340;2022-10-22T06:43:01;61.10;;;28.88;;
43835;SDS011;39345;43.964;25.340;2022-10-22T06:45:28;62.35;;;29.45;;
43835;SDS011;39345;43.964;25.340;2022-10-22T06:47:55;75.30;;;34.78;;
43835;SDS011;39345;43.964;25.340;2022-10-22T06:50:23;60.17;;;29.40;;
43835;SDS011;39345;43.964;25.340;2022-10-22T06:52:50;42.70;;;22.48;;
43835;SDS011;39345;43.964;25.340;2022-10-22T06:55:18;44.03;;;20.95;;
43835;SDS011;39345;43.964;25.340;2022-10-22T06:57:45;38.88;;;19.92;;
43835;SDS011;39345;43.964;25.340;2022-10-22T07:00:13;36.92;;;19.48;;
43835;SDS011;39345;43.964;25.340;2022-10-22T07:02:40;39.47;;;21.33;;
43835;SDS011;39345;43.964;25.340;2022-10-22T07:05:08;33.53;;;19.27;;
43835;SDS011;39345;43.964;25.340;2022-10-22T07:07:36;28.02;;;15.70;;
43835;SDS011;39345;43.964;25.340;2022-10-22T07:10:03;24.38;;;16.20;;
43835;SDS011;39345;43.964;25.340;2022-10-22T07:12:32;32.08;;;20.05;;
43835;SDS011;39345;43.964;25.340;2022-10-22T07:15:00;43.42;;;20.88;;
43835;SDS011;39345;43.964;25.340;2022-10-22T07:17:27;31.10;;;19.90;;
43835;SDS011;39345;43.964;25.340;2022-10-22T07:19:55;25.60;;;16.55;;
43835;SDS011;39345;43.964;25.340;2022-10-22T07:22:22;29.40;;;17.02;;
43835;SDS011;39345;43.964;25.340;2022-10-22T07:24:49;21.58;;;13.98;;
43835;SDS011;39345;43.964;25.340;2022-10-22T07:27:17;22.88;;;14.65;;
43835;SDS011;39345;43.964;25.340;2022-10-22T07:29:44;25.85;;;14.60;;
43835;SDS011;39345;43.964;25.340;2022-10-22T07:32:12;22.13;;;13.45;;
43835;SDS011;39345;43.964;25.340;2022-10-22T07:34:39;25.63;;;13.43;;
43835;SDS011;39345;43.964;25.340;2022-10-22T07:37:09;31.38;;;18.48;;
43835;SDS011;39345;43.964;25.340;2022-10-22T07:39:36;20.20;;;14.65;;
43835;SDS011;39345;43.964;25.340;2022-10-22T07:42:04;24.83;;;13.73;;
43835;SDS011;39345;43.964;25.340;2022-10-22T07:44:31;20.73;;;13.82;;
43835;SDS011;39345;43.964;25.340;2022-10-22T07:46:59;27.33;;;16.88;;
43835;SDS011;39345;43.964;25.340;2022-10-22T07:49:26;21.98;;;14.35;;
43835;SDS011;39345;43.964;25.340;2022-10-22T07:51:53;25.00;;;13.48;;
43835;SDS011;39345;43.964;25.340;2022-10-22T07:54:22;24.10;;;13.18;;
43835;SDS011;39345;43.964;25.340;2022-10-22T07:56:50;19.67;;;11.68;;
43835;SDS011;39345;43.964;25.340;2022-10-22T07:59:17;19.58;;;11.25;;
43835;SDS011;39345;43.964;25.340;2022-10-22T08:01:45;23.58;;;11.27;;
43835;SDS011;39345;43.964;25.340;2022-10-22T08:04:12;18.73;;;11.90;;
43835;SDS011;39345;43.964;25.340;2022-10-22T08:06:40;22.63;;;12.60;;
43835;SDS011;39345;43.964;25.340;2022-10-22T08:09:12;19.88;;;11.35;;
43835;SDS011;39345;43.964;25.340;2022-10-22T08:11:40;23.23;;;13.23;;
43835;SDS011;39345;43.964;25.340;2022-10-22T08:14:07;21.70;;;12.55;;
43835;SDS011;39345;43.964;25.340;2022-10-22T08:16:35;25.13;;;13.07;;
43835;SDS011;39345;43.964;25.340;2022-10-22T08:19:02;22.88;;;13.82;;
43835;SDS011;39345;43.964;25.340;2022-10-22T08:21:30;23.98;;;13.45;;
43835;SDS011;39345;43.964;25.340;2022-10-22T08:23:57;19.92;;;11.73;;
43835;SDS011;39345;43.964;25.340;2022-10-22T08:26:24;25.98;;;12.18;;
43835;SDS011;39345;43.964;25.340;2022-10-22T08:28:52;17.95;;;12.88;;
43835;SDS011;39345;43.964;25.340;2022-10-22T08:31:19;25.30;;;13.80;;
43835;SDS011;39345;43.964;25.340;2022-10-22T08:33:47;20.15;;;13.50;;
43835;SDS011;39345;43.964;25.340;2022-10-22T08:36:14;27.15;;;13.90;;
43835;SDS011;39345;43.964;25.340;2022-10-22T08:38:42;23.10;;;13.95;;
43835;SDS011;39345;43.964;25.340;2022-10-22T08:51:14;25.25;;;13.10;;
43835;SDS011;39345;43.964;25.340;2022-10-22T08:56:28;20.98;;;13.32;;
43835;SDS011;39345;43.964;25.340;2022-10-22T09:01:51;18.80;;;12.90;;
43835;SDS011;39345;43.964;25.340;2022-10-22T09:04:24;20.75;;;12.93;;
43835;SDS011;39345;43.964;25.340;2022-10-22T09:06:53;18.58;;;11.63;;
43835;SDS011;39345;43.964;25.340;2022-10-22T09:09:22;19.67;;;12.65;;
43835;SDS011;39345;43.964;25.340;2022-10-22T09:11:53;18.95;;;12.13;;
43835;SDS011;39345;43.964;25.340;2022-10-22T09:14:23;22.23;;;12.73;;
43835;SDS011;39345;43.964;25.340;2022-10-22T09:24:58;21.30;;;11.25;;
43835;SDS011;39345;43.964;25.340;2022-10-22T09:27:26;18.92;;;12.18;;
43835;SDS011;39345;43.964;25.340;2022-10-22T09:29:54;21.25;;;12.05;;
43835;SDS011;39345;43.964;25.340;2022-10-22T09:32:22;21.38;;;12.05;;
43835;SDS011;39345;43.964;25.340;2022-10-22T09:34:53;19.10;;;12.30;;
43835;SDS011;39345;43.964;25.340;2022-10-22T09:37:24;20.50;;;11.68;;
43835;SDS011;39345;43.964;25.340;2022-10-22T09:39:52;15.38;;;10.77;;
43835;SDS011;39345;43.964;25.340;2022-10-22T09:42:20;17.23;;;11.02;;
43835;SDS011;39345;43.964;25.340;2022-10-22T09:44:55;21.33;;;11.48;;
43835;SDS011;39345;43.964;25.340;2022-10-22T09:52:57;36.92;;;12.45;;
43835;SDS011;39345;43.964;25.340;2022-10-22T09:55:25;85.70;;;17.13;;
43835;SDS011;39345;43.964;25.340;2022-10-22T09:57:57;91.25;;;17.23;;
43835;SDS011;39345;43.964;25.340;2022-10-22T10:00:26;138.65;;;19.15;;
43835;SDS011;39345;43.964;25.340;2022-10-22T10:02:57;30.88;;;11.70;;
43835;SDS011;39345;43.964;25.340;2022-10-22T10:05:27;65.65;;;14.57;;
43835;SDS011;39345;43.964;25.340;2022-10-22T10:07:55;114.38;;;15.57;;
43835;SDS011;39345;43.964;25.340;2022-10-22T10:10:28;22.38;;;9.32;;
43835;SDS011;39345;43.964;25.340;2022-10-22T10:15:31;16.13;;;9.73;;
43835;SDS011;39345;43.964;25.340;2022-10-22T10:18:13;14.13;;;10.00;;
43835;SDS011;39345;43.964;25.340;2022-10-22T10:20:45;16.15;;;11.13;;
43835;SDS011;39345;43.964;25.340;2022-10-22T10:25:56;28.67;;;9.98;;
43835;SDS011;39345;43.964;25.340;2022-10-22T10:33:33;10.90;;;8.70;;
43835;SDS011;39345;43.964;25.340;2022-10-22T10:36:26;13.57;;;8.63;;
43835;SDS011;39345;43.964;25.340;2022-10-22T10:41:27;267.23;;;22.45;;
43835;SDS011;39345;43.964;25.340;2022-10-22T10:49:26;238.70;;;23.33;;
43835;SDS011;39345;43.964;25.340;2022-10-22T10:54:39;12.35;;;8.77;;
43835;SDS011;39345;43.964;25.340;2022-10-22T10:59:56;50.92;;;14.15;;
43835;SDS011;39345;43.964;25.340;2022-10-22T11:07:37;15.07;;;7.63;;
43835;SDS011;39345;43.964;25.340;2022-10-22T11:12:39;10.85;;;6.80;;
43835;SDS011;39345;43.964;25.340;2022-10-22T11:15:28;11.88;;;7.72;;
43835;SDS011;39345;43.964;25.340;2022-10-22T11:18:02;9.90;;;8.02;;
43835;SDS011;39345;43.964;25.340;2022-10-22T11:20:37;12.18;;;7.40;;
43835;SDS011;39345;43.964;25.340;2022-10-22T11:23:49;11.32;;;7.00;;
43835;SDS011;39345;43.964;25.340;2022-10-22T11:25:57;9.20;;;6.68;;
43835;SDS011;39345;43.964;25.340;2022-10-22T11:28:27;11.73;;;7.25;;
43835;SDS011;39345;43.964;25.340;2022-10-22T11:30:57;10.10;;;7.30;;
43835;SDS011;39345;43.964;25.340;2022-10-22T11:33:27;10.95;;;6.75;;
43835;SDS011;39345;43.964;25.340;2022-10-22T11:36:00;10.48;;;7.07;;
43835;SDS011;39345;43.964;25.340;2022-10-22T11:38:28;13.38;;;7.15;;
43835;SDS011;39345;43.964;25.340;2022-10-22T11:41:01;14.73;;;7.25;;
43835;SDS011;39345;43.964;25.340;2022-10-22T11:43:33;12.30;;;8.30;;
43835;SDS011;39345;43.964;25.340;2022-10-22T11:46:07;12.38;;;7.03;;
43835;SDS011;39345;43.964;25.340;2022-10-22T11:48:36;10.35;;;6.70;;
43835;SDS011;39345;43.964;25.340;2022-10-22T11:51:03;10.75;;;7.05;;
43835;SDS011;39345;43.964;25.340;2022-10-22T11:53:54;10.23;;;6.32;;
43835;SDS011;39345;43.964;25.340;2022-10-22T11:56:25;16.80;;;9.02;;
43835;SDS011;39345;43.964;25.340;2022-10-22T11:58:53;12.25;;;7.07;;
43835;SDS011;39345;43.964;25.340;2022-10-22T12:01:25;14.93;;;6.90;;
43835;SDS011;39345;43.964;25.340;2022-10-22T12:06:24;11.20;;;7.60;;
43835;SDS011;39345;43.964;25.340;2022-10-22T12:11:44;12.98;;;6.90;;
43835;SDS011;39345;43.964;25.340;2022-10-22T12:14:22;12.55;;;8.40;;
43835;SDS011;39345;43.964;25.340;2022-10-22T12:16:57;13.18;;;8.45;;
43835;SDS011;39345;43.964;25.340;2022-10-22T12:19:26;9.13;;;6.30;;
43835;SDS011;39345;43.964;25.340;2022-10-22T12:22:14;11.15;;;6.28;;
43835;SDS011;39345;43.964;25.340;2022-10-22T12:24:44;9.18;;;6.53;;
43835;SDS011;39345;43.964;25.340;2022-10-22T12:27:25;12.15;;;6.72;;
43835;SDS011;39345;43.964;25.340;2022-10-22T12:29:54;10.40;;;6.70;;
43835;SDS011;39345;43.964;25.340;2022-10-22T12:32:22;13.60;;;7.15;;
43835;SDS011;39345;43.964;25.340;2022-10-22T12:34:50;8.73;;;7.10;;
43835;SDS011;39345;43.964;25.340;2022-10-22T12:37:18;12.85;;;6.63;;
43835;SDS011;39345;43.964;25.340;2022-10-22T12:39:45;14.07;;;7.07;;
43835;SDS011;39345;43.964;25.340;2022-10-22T12:42:14;19.63;;;7.35;;
43835;SDS011;39345;43.964;25.340;2022-10-22T12:44:42;66.47;;;43.85;;
43835;SDS011;39345;43.964;25.340;2022-10-22T12:47:16;10.55;;;6.85;;
43835;SDS011;39345;43.964;25.340;2022-10-22T12:49:45;9.95;;;6.95;;
43835;SDS011;39345;43.964;25.340;2022-10-22T12:52:20;7.70;;;6.38;;
43835;SDS011;39345;43.964;25.340;2022-10-22T12:54:49;10.73;;;7.35;;
43835;SDS011;39345;43.964;25.340;2022-10-22T12:57:18;11.55;;;8.85;;
43835;SDS011;39345;43.964;25.340;2022-10-22T12:59:46;14.73;;;7.53;;
43835;SDS011;39345;43.964;25.340;2022-10-22T13:02:22;8.77;;;6.15;;
43835;SDS011;39345;43.964;25.340;2022-10-22T13:05:11;11.80;;;6.63;;
43835;SDS011;39345;43.964;25.340;2022-10-22T13:07:40;11.50;;;5.90;;
43835;SDS011;39345;43.964;25.340;2022-10-22T13:10:17;11.52;;;6.15;;
43835;SDS011;39345;43.964;25.340;2022-10-22T13:12:48;10.80;;;6.03;;
43835;SDS011;39345;43.964;25.340;2022-10-22T13:20:32;10.32;;;6.88;;
43835;SDS011;39345;43.964;25.340;2022-10-22T13:23:03;14.35;;;9.18;;
43835;SDS011;39345;43.964;25.340;2022-10-22T13:25:32;11.13;;;7.57;;
43835;SDS011;39345;43.964;25.340;2022-10-22T13:30:37;13.15;;;7.95;;
43835;SDS011;39345;43.964;25.340;2022-10-22T13:35:54;13.20;;;8.45;;
43835;SDS011;39345;43.964;25.340;2022-10-22T13:38:23;14.10;;;7.80;;
43835;SDS011;39345;43.964;25.340;2022-10-22T13:40:51;11.18;;;7.32;;
43835;SDS011;39345;43.964;25.340;2022-10-22T13:43:18;21.40;;;8.63;;
43835;SDS011;39345;43.964;25.340;2022-10-22T13:45:46;12.95;;;8.65;;
43835;SDS011;39345;43.964;25.340;2022-10-22T13:48:15;12.98;;;7.53;;
43835;SDS011;39345;43.964;25.340;2022-10-22T13:50:44;12.30;;;7.32;;
43835;SDS011;39345;43.964;25.340;2022-10-22T13:53:22;10.02;;;6.50;;
43835;SDS011;39345;43.964;25.340;2022-10-22T13:55:50;11.65;;;6.47;;
43835;SDS011;39345;43.964;25.340;2022-10-22T13:58:21;12.05;;;6.88;;
43835;SDS011;39345;43.964;25.340;2022-10-22T14:03:22;11.77;;;6.68;;
43835;SDS011;39345;43.964;25.340;2022-10-22T14:05:51;11.93;;;7.25;;
43835;SDS011;39345;43.964;25.340;2022-10-22T14:08:19;11.13;;;6.80;;
43835;SDS011;39345;43.964;25.340;2022-10-22T14:10:47;14.38;;;7.38;;
43835;SDS011;39345;43.964;25.340;2022-10-22T14:13:15;15.82;;;9.13;;
43835;SDS011;39345;43.964;25.340;2022-10-22T14:15:43;12.48;;;7.50;;
43835;SDS011;39345;43.964;25.340;2022-10-22T14:18:13;13.30;;;7.35;;
43835;SDS011;39345;43.964;25.340;2022-10-22T14:20:41;14.00;;;7.95;;
43835;SDS011;39345;43.964;25.340;2022-10-22T14:23:13;12.10;;;8.23;;
43835;SDS011;39345;43.964;25.340;2022-10-22T14:25:42;13.90;;;10.00;;
43835;SDS011;39345;43.964;25.340;2022-10-22T14:28:10;20.52;;;10.63;;
43835;SDS011;39345;43.964;25.340;2022-10-22T14:30:37;14.00;;;9.05;;
43835;SDS011;39345;43.964;25.340;2022-10-22T14:33:09;13.25;;;10.05;;
43835;SDS011;39345;43.964;25.340;2022-10-22T14:35:39;21.60;;;11.13;;
43835;SDS011;39345;43.964;25.340;2022-10-22T14:38:06;17.65;;;12.35;;
43835;SDS011;39345;43.964;25.340;2022-10-22T14:40:34;19.17;;;13.43;;
43835;SDS011;39345;43.964;25.340;2022-10-22T14:43:04;18.92;;;11.32;;
43835;SDS011;39345;43.964;25.340;2022-10-22T14:45:31;18.55;;;10.55;;
43835;SDS011;39345;43.964;25.340;2022-10-22T14:47:59;19.02;;;12.13;;
43835;SDS011;39345;43.964;25.340;2022-10-22T14:50:27;28.25;;;16.40;;
43835;SDS011;39345;43.964;25.340;2022-10-22T14:52:54;27.10;;;15.98;;
43835;SDS011;39345;43.964;25.340;2022-10-22T14:55:24;27.63;;;19.42;;
43835;SDS011;39345;43.964;25.340;2022-10-22T14:57:52;27.05;;;17.73;;
43835;SDS011;39345;43.964;25.340;2022-10-22T15:00:20;23.88;;;16.42;;
43835;SDS011;39345;43.964;25.340;2022-10-22T15:02:47;25.65;;;15.02;;
43835;SDS011;39345;43.964;25.340;2022-10-22T15:05:15;25.90;;;13.68;;
43835;SDS011;39345;43.964;25.340;2022-10-22T15:07:43;24.63;;;14.20;;
43835;SDS011;39345;43.964;25.340;2022-10-22T15:10:11;24.13;;;14.73;;
43835;SDS011;39345;43.964;25.340;2022-10-22T15:12:38;25.88;;;14.32;;
43835;SDS011;39345;43.964;25.340;2022-10-22T15:15:06;17.80;;;11.45;;
43835;SDS011;39345;43.964;25.340;2022-10-22T15:17:34;20.38;;;11.45;;
43835;SDS011;39345;43.964;25.340;2022-10-22T15:20:01;16.48;;;11.05;;
43835;SDS011;39345;43.964;25.340;2022-10-22T15:22:31;20.40;;;10.73;;
43835;SDS011;39345;43.964;25.340;2022-10-22T15:25:02;19.77;;;11.02;;
43835;SDS011;39345;43.964;25.340;2022-10-22T15:27:29;21.05;;;11.23;;
43835;SDS011;39345;43.964;25.340;2022-10-22T15:29:57;21.58;;;10.77;;
43835;SDS011;39345;43.964;25.340;2022-10-22T15:32:25;20.42;;;11.10;;
43835;SDS011;39345;43.964;25.340;2022-10-22T15:34:54;34.28;;;17.08;;
43835;SDS011;39345;43.964;25.340;2022-10-22T15:37:22;29.83;;;17.58;;
43835;SDS011;39345;43.964;25.340;2022-10-22T15:39:49;30.60;;;17.27;;
43835;SDS011;39345;43.964;25.340;2022-10-22T15:42:17;26.73;;;17.75;;
43835;SDS011;39345;43.964;25.340;2022-10-22T15:44:44;17.77;;;10.88;;
43835;SDS011;39345;43.964;25.340;2022-10-22T15:47:12;22.73;;;13.73;;
43835;SDS011;39345;43.964;25.340;2022-10-22T15:49:39;23.13;;;14.23;;
43835;SDS011;39345;43.964;25.340;2022-10-22T15:52:07;26.85;;;15.38;;
43835;SDS011;39345;43.964;25.340;2022-10-22T15:54:35;30.33;;;17.90;;
43835;SDS011;39345;43.964;25.340;2022-10-22T15:57:02;40.78;;;19.33;;
43835;SDS011;39345;43.964;25.340;2022-10-22T15:59:34;39.22;;;18.20;;
43835;SDS011;39345;43.964;25.340;2022-10-22T16:02:01;27.05;;;15.82;;
43835;SDS011;39345;43.964;25.340;2022-10-22T16:04:29;32.38;;;16.00;;
43835;SDS011;39345;43.964;25.340;2022-10-22T16:06:56;27.20;;;15.48;;
43835;SDS011;39345;43.964;25.340;2022-10-22T16:09:25;27.95;;;15.35;;
43835;SDS011;39345;43.964;25.340;2022-10-22T16:11:53;26.40;;;16.02;;
43835;SDS011;39345;43.964;25.340;2022-10-22T16:14:21;26.65;;;15.10;;
43835;SDS011;39345;43.964;25.340;2022-10-22T16:16:50;25.02;;;15.05;;
43835;SDS011;39345;43.964;25.340;2022-10-22T16:19:19;25.48;;;14.70;;
43835;SDS011;39345;43.964;25.340;2022-10-22T16:21:48;30.83;;;14.93;;
43835;SDS011;39345;43.964;25.340;2022-10-22T16:24:16;27.80;;;13.50;;
43835;SDS011;39345;43.964;25.340;2022-10-22T16:26:44;29.67;;;14.05;;
43835;SDS011;39345;43.964;25.340;2022-10-22T16:29:12;26.48;;;13.73;;